Time;durP1;ratioP1;P1;durP2;ratioP2;P2;SDS_P1;SDS_P2;PMS_P1;PMS_P2;Temp;Humidity;BMP_temperature;BMP_pressure;BME280_temperature;BME280_humidity;BME280_pressure;Samples;Min_cycle;Max_cycle;Signal;HPM_P1;HPM_P2
2021/04/21 00:00:09;;;;;;;54.03;32.90;;;10.00;99.90;;;;;;5115533;28;20024;-69
2021/04/21 00:02:36;;;;;;;53.67;33.25;;;10.00;99.90;;;;;;5115151;28;20051;-70
2021/04/21 00:05:09;;;;;;;51.13;31.92;;;9.90;99.90;;;;;;5115080;28;20360;-71
2021/04/21 00:07:36;;;;;;;51.08;29.25;;;9.90;99.90;;;;;;5096814;28;20480;-68
2021/04/21 00:10:04;;;;;;;50.40;29.42;;;9.90;99.90;;;;;;5115106;28;20028;-69
2021/04/21 00:12:30;;;;;;;46.88;29.90;;;9.90;99.90;;;;;;5114990;28;20066;-69
2021/04/21 00:14:57;;;;;;;45.78;29.45;;;9.90;99.90;;;;;;5096640;28;20376;-69
2021/04/21 00:17:24;;;;;;;47.72;31.88;;;10.00;99.90;;;;;;5114763;28;20034;-70
2021/04/21 00:19:55;;;;;;;50.90;31.45;;;10.00;99.90;;;;;;5114866;28;20077;-70
2021/04/21 00:22:23;;;;;;;51.35;33.08;;;10.00;99.90;;;;;;5114875;28;20104;-71
2021/04/21 00:24:51;;;;;;;53.83;33.33;;;10.10;99.90;;;;;;5114246;28;20070;-68
2021/04/21 00:27:25;;;;;;;55.78;34.20;;;10.00;99.90;;;;;;5114737;28;20103;-70
2021/04/21 00:29:55;;;;;;;49.83;32.60;;;10.00;99.90;;;;;;5096241;28;20050;-68
2021/04/21 00:32:26;;;;;;;51.70;32.75;;;10.10;99.90;;;;;;5096384;28;20395;-69
2021/04/21 00:34:56;;;;;;;51.08;31.95;;;10.00;99.90;;;;;;5096315;28;20425;-69
2021/04/21 00:37:26;;;;;;;74.63;42.38;;;10.10;99.90;;;;;;5114390;28;20028;-69
2021/04/21 00:39:52;;;;;;;82.43;45.90;;;10.00;99.90;;;;;;5114515;28;20028;-70
2021/04/21 00:42:31;;;;;;;81.38;47.47;;;10.10;99.90;;;;;;5114140;28;20020;-67
2021/04/21 00:45:17;;;;;;;82.22;45.90;;;10.00;99.90;;;;;;5114173;28;20023;-69
2021/04/21 00:47:50;;;;;;;82.30;46.72;;;9.90;99.90;;;;;;5114435;28;20088;-69
2021/04/21 00:50:41;;;;;;;82.60;46.03;;;9.90;99.90;;;;;;5114599;28;20482;-67
2021/04/21 00:53:25;;;;;;;73.60;43.92;;;9.80;99.90;;;;;;5095997;28;20069;-69
2021/04/21 00:56:14;;;;;;;77.45;43.83;;;9.80;99.90;;;;;;5113936;28;20364;-67
2021/04/21 00:58:51;;;;;;;78.65;44.35;;;9.70;99.90;;;;;;5095733;28;20038;-68
2021/04/21 01:01:19;;;;;;;73.15;42.00;;;9.70;99.90;;;;;;5114412;28;20055;-67
2021/04/21 01:03:47;;;;;;;68.05;40.85;;;9.70;99.90;;;;;;5095895;28;20042;-68
2021/04/21 01:06:17;;;;;;;61.80;37.08;;;9.70;99.90;;;;;;5113725;28;20487;-68
2021/04/21 01:08:48;;;;;;;60.60;35.30;;;9.70;99.90;;;;;;5113940;28;20023;-67
2021/04/21 01:11:22;;;;;;;53.80;34.30;;;9.70;99.90;;;;;;5113977;28;20024;-68
2021/04/21 01:13:55;;;;;;;71.25;39.22;;;9.60;99.90;;;;;;5113915;28;20343;-68
2021/04/21 01:16:26;;;;;;;63.38;36.72;;;9.60;99.90;;;;;;5095606;28;20031;-69
2021/04/21 01:18:54;;;;;;;51.47;31.45;;;9.60;99.90;;;;;;5113427;28;20019;-70
2021/04/21 01:21:26;;;;;;;52.05;32.35;;;9.60;99.90;;;;;;5113824;28;20401;-70
2021/04/21 01:24:14;;;;;;;53.55;31.67;;;9.60;99.90;;;;;;5095475;28;20033;-66
2021/04/21 01:27:07;;;;;;;44.53;28.33;;;9.60;99.90;;;;;;5095231;28;20055;-67
2021/04/21 01:29:46;;;;;;;50.17;28.55;;;9.60;99.90;;;;;;5114687;28;20019;-69
2021/04/21 01:32:23;;;;;;;44.75;27.73;;;9.60;99.90;;;;;;5095498;28;20551;-69
2021/04/21 01:34:51;;;;;;;50.30;29.42;;;9.50;99.90;;;;;;5095374;28;20499;-70
2021/04/21 01:37:22;;;;;;;44.95;27.90;;;9.50;99.90;;;;;;5113203;28;20361;-66
2021/04/21 01:39:57;;;;;;;49.10;29.45;;;9.50;99.90;;;;;;5113314;28;20093;-68
2021/04/21 01:42:31;;;;;;;49.03;30.42;;;9.40;99.90;;;;;;5112710;28;20395;-67
2021/04/21 01:44:59;;;;;;;48.53;30.02;;;9.40;99.90;;;;;;5113582;28;20047;-67
2021/04/21 01:47:24;;;;;;;50.40;30.63;;;9.30;99.90;;;;;;5113464;28;20475;-67
2021/04/21 01:50:12;;;;;;;55.95;31.67;;;9.30;99.90;;;;;;5113458;28;20096;-68
2021/04/21 01:52:56;;;;;;;51.97;29.92;;;9.30;99.90;;;;;;5095413;28;20480;-67
2021/04/21 01:55:22;;;;;;;52.42;32.15;;;9.30;99.90;;;;;;5113418;28;20117;-67
2021/04/21 01:58:06;;;;;;;50.08;31.75;;;9.30;99.90;;;;;;5113290;28;20076;-67
2021/04/21 02:00:35;;;;;;;54.30;32.22;;;9.30;99.90;;;;;;5113080;28;20032;-66
2021/04/21 02:03:24;;;;;;;56.80;34.67;;;9.20;99.90;;;;;;5113321;28;20020;-68
2021/04/21 02:06:18;;;;;;;54.05;32.15;;;9.10;99.90;;;;;;5113596;28;20065;-69
2021/04/21 02:09:01;;;;;;;56.05;32.05;;;9.00;99.90;;;;;;5113545;28;20497;-70
2021/04/21 02:11:31;;;;;;;48.45;30.38;;;8.90;99.90;;;;;;5113285;28;20028;-67
2021/04/21 02:14:19;;;;;;;54.92;29.15;;;8.90;99.90;;;;;;5112936;28;20379;-67
2021/04/21 02:16:55;;;;;;;62.45;35.10;;;8.80;99.90;;;;;;5113260;28;20484;-67
2021/04/21 02:19:47;;;;;;;60.92;39.85;;;8.80;99.90;;;;;;5113149;28;20070;-67
2021/04/21 02:22:27;;;;;;;63.80;38.67;;;8.70;99.90;;;;;;5113156;28;20118;-68
2021/04/21 02:24:58;;;;;;;48.83;31.25;;;8.80;99.90;;;;;;5112880;28;20028;-70
2021/04/21 02:27:35;;;;;;;48.78;30.17;;;8.80;99.90;;;;;;5113133;28;20038;-69
2021/04/21 02:30:12;;;;;;;52.05;29.13;;;8.90;99.90;;;;;;5113456;28;20031;-71
2021/04/21 02:32:56;;;;;;;57.10;30.98;;;8.90;99.90;;;;;;5094797;28;20034;-69
2021/04/21 02:35:29;;;;;;;43.92;29.35;;;8.90;99.90;;;;;;5113062;28;20019;-67
2021/04/21 02:38:21;;;;;;;48.22;29.00;;;8.90;99.90;;;;;;5113042;28;20037;-68
2021/04/21 02:41:07;;;;;;;46.88;27.05;;;8.90;99.90;;;;;;5094720;28;20027;-67
2021/04/21 02:43:39;;;;;;;49.20;31.00;;;9.00;99.90;;;;;;5113008;28;20455;-69
2021/04/21 02:46:26;;;;;;;51.05;30.92;;;8.90;99.90;;;;;;5112661;28;20027;-67
2021/04/21 02:49:19;;;;;;;44.17;28.35;;;8.90;99.90;;;;;;5112926;28;20079;-68
2021/04/21 02:52:04;;;;;;;50.67;28.98;;;8.80;99.90;;;;;;5112891;28;20023;-67
2021/04/21 02:55:04;;;;;;;46.83;28.13;;;8.80;99.90;;;;;;5115990;28;20020;-69
2021/04/21 02:57:33;;;;;;;43.83;28.05;;;8.70;99.90;;;;;;5116201;28;20028;-69
2021/04/21 03:00:05;;;;;;;45.70;27.58;;;8.60;99.90;;;;;;5116388;28;20039;-66
2021/04/21 03:02:34;;;;;;;;;;;8.50;99.90;;;;;;5116900;28;20024;-66
2021/04/21 03:05:13;;;;;;;45.05;27.35;;;8.60;99.90;;;;;;5116024;28;19904;-67
2021/04/21 03:07:54;;;;;;;42.22;25.92;;;8.60;99.90;;;;;;5116302;28;20043;-66
2021/04/21 03:10:23;;;;;;;44.25;27.05;;;8.60;99.90;;;;;;5116254;28;20088;-68
2021/04/21 03:13:10;;;;;;;48.20;27.25;;;8.60;99.90;;;;;;5115902;28;20465;-66
2021/04/21 03:15:43;;;;;;;48.55;24.38;;;8.60;99.90;;;;;;5116144;28;20027;-68
2021/04/21 03:18:14;;;;;;;52.60;26.13;;;8.70;99.90;;;;;;5097788;28;20039;-69
2021/04/21 03:20:43;;;;;;;47.50;24.80;;;8.80;99.90;;;;;;5116335;28;20114;-68
2021/04/21 03:23:13;;;;;;;46.28;24.40;;;8.70;99.90;;;;;;5115968;28;20106;-67
2021/04/21 03:25:42;;;;;;;43.70;25.33;;;8.80;99.90;;;;;;5115627;28;20100;-67
2021/04/21 03:28:11;;;;;;;39.95;24.20;;;8.80;99.90;;;;;;5115926;28;20023;-67
2021/04/21 03:30:37;;;;;;;40.92;25.30;;;8.80;99.90;;;;;;5097564;28;20460;-67
2021/04/21 03:33:03;;;;;;;41.85;25.60;;;8.90;99.90;;;;;;5115811;28;20038;-67
2021/04/21 03:35:30;;;;;;;42.10;26.73;;;8.80;99.90;;;;;;5115717;28;20036;-66
2021/04/21 03:38:07;;;;;;;42.20;25.45;;;8.90;99.90;;;;;;5115849;28;20035;-68
2021/04/21 03:40:34;;;;;;;39.67;25.30;;;8.90;99.90;;;;;;5115619;28;20034;-69
2021/04/21 03:43:01;;;;;;;35.78;22.73;;;8.90;99.90;;;;;;5115507;28;20023;-67
2021/04/21 03:45:28;;;;;;;37.90;24.35;;;9.00;99.90;;;;;;5115534;28;20028;-70
2021/04/21 03:47:55;;;;;;;45.25;25.30;;;9.00;99.90;;;;;;5097181;28;20028;-68
2021/04/21 03:50:22;;;;;;;39.90;24.30;;;9.00;99.90;;;;;;5115460;28;20518;-68
2021/04/21 03:52:54;;;;;;;58.20;33.35;;;9.00;99.90;;;;;;5115350;28;20030;-68
2021/04/21 03:55:21;;;;;;;50.05;29.40;;;9.00;99.90;;;;;;5115979;28;20023;-69
2021/04/21 03:57:50;;;;;;;43.33;25.85;;;9.00;99.90;;;;;;5115366;28;20035;-68
2021/04/21 04:00:20;;;;;;;44.33;24.13;;;9.00;99.90;;;;;;5115248;28;20040;-68
2021/04/21 04:02:51;;;;;;;41.35;25.85;;;8.90;99.90;;;;;;5115265;28;20016;-68
2021/04/21 04:05:23;;;;;;;42.55;24.95;;;8.90;99.90;;;;;;5114232;28;20035;-70
2021/04/21 04:07:52;;;;;;;57.90;33.13;;;8.90;99.90;;;;;;5096798;28;20399;-67
2021/04/21 04:10:19;;;;;;;45.90;27.27;;;9.00;99.90;;;;;;5115008;28;20073;-69
2021/04/21 04:12:47;;;;;;;41.05;24.90;;;9.00;99.90;;;;;;5115067;28;20103;-69
2021/04/21 04:15:14;;;;;;;35.25;22.55;;;9.00;99.90;;;;;;5114740;28;20023;-68
2021/04/21 04:17:46;;;;;;;35.63;22.58;;;9.00;99.90;;;;;;5114842;28;20030;-68
2021/04/21 04:20:14;;;;;;;36.17;23.88;;;9.00;99.90;;;;;;5096511;28;20031;-67
2021/04/21 04:22:44;;;;;;;38.17;23.92;;;9.00;99.90;;;;;;5114841;28;20035;-68
2021/04/21 04:25:14;;;;;;;55.22;24.52;;;9.00;99.90;;;;;;5114472;28;20052;-67
2021/04/21 04:27:41;;;;;;;60.47;35.35;;;9.00;99.90;;;;;;5114765;28;20096;-68
2021/04/21 04:30:08;;;;;;;52.38;30.77;;;9.00;99.90;;;;;;5114629;28;20104;-68
2021/04/21 04:32:39;;;;;;;47.97;24.50;;;9.00;99.90;;;;;;5096276;28;20137;-69
2021/04/21 04:35:06;;;;;;;41.53;23.30;;;9.00;99.90;;;;;;5114657;28;20039;-69
2021/04/21 04:37:33;;;;;;;43.08;22.85;;;9.00;99.90;;;;;;5114339;28;20035;-68
2021/04/21 04:40:01;;;;;;;38.00;22.25;;;9.10;99.90;;;;;;5114192;28;20406;-68
2021/04/21 04:42:27;;;;;;;42.20;22.23;;;9.10;99.90;;;;;;5096202;28;20024;-69
2021/04/21 04:44:55;;;;;;;39.55;22.98;;;9.20;99.90;;;;;;5114377;28;20028;-67
2021/04/21 04:47:33;;;;;;;41.05;24.50;;;9.20;99.90;;;;;;5114323;28;20123;-67
2021/04/21 04:50:09;;;;;;;39.58;23.58;;;9.30;99.90;;;;;;5114228;28;20023;-66
2021/04/21 04:52:43;;;;;;;42.63;23.85;;;9.30;99.90;;;;;;5114004;28;20226;-69
2021/04/21 04:55:12;;;;;;;40.45;24.67;;;9.40;99.90;;;;;;5114248;28;20069;-68
2021/04/21 04:57:42;;;;;;;38.97;25.35;;;9.50;99.90;;;;;;5114113;28;20530;-67
2021/04/21 05:00:13;;;;;;;42.08;25.20;;;9.60;99.90;;;;;;5114015;28;20032;-69
2021/04/21 05:03:17;;;;;;;46.47;26.52;;;9.60;99.90;;;;;;5114022;28;20028;-68
2021/04/21 05:05:44;;;;;;;48.20;27.05;;;9.70;99.90;;;;;;5110798;28;20039;-68
2021/04/21 05:08:16;;;;;;;47.60;27.42;;;9.80;99.90;;;;;;5113906;28;20463;-66
2021/04/21 05:10:58;;;;;;;55.28;30.20;;;9.90;99.90;;;;;;5095492;28;20024;-69
2021/04/21 05:13:24;;;;;;;;;;;9.90;99.90;;;;;;5096077;28;20456;-66
2021/04/21 05:15:53;;;;;;;58.17;33.95;;;10.00;99.90;;;;;;5094742;28;19903;-67
2021/04/21 05:18:59;;;;;;;45.08;25.92;;;10.00;99.90;;;;;;5113756;28;20078;-70
2021/04/21 05:21:43;;;;;;;46.63;25.52;;;10.00;99.90;;;;;;5095381;28;20030;-65
2021/04/21 05:24:42;;;;;;;42.83;23.13;;;10.00;99.90;;;;;;5095533;28;20428;-67
2021/04/21 05:27:38;;;;;;;38.97;23.13;;;10.10;99.90;;;;;;5094875;28;20047;-70
2021/04/21 05:30:33;;;;;;;43.20;24.55;;;10.10;99.90;;;;;;5113667;28;20084;-66
2021/04/21 05:33:02;;;;;;;41.92;24.00;;;10.10;99.90;;;;;;5091544;28;20051;-66
2021/04/21 05:35:37;;;;;;;46.20;24.45;;;10.20;99.90;;;;;;5095230;28;20062;-68
2021/04/21 05:38:40;;;;;;;43.80;23.48;;;10.20;99.90;;;;;;5113651;28;20476;-67
2021/04/21 05:41:54;;;;;;;38.30;23.42;;;10.30;99.90;;;;;;5113300;28;20035;-68
2021/04/21 05:44:53;;;;;;;40.15;22.92;;;10.40;99.90;;;;;;5036128;28;20048;-68
2021/04/21 05:47:56;;;;;;;37.35;23.05;;;10.50;99.90;;;;;;5111374;28;20035;-66
2021/04/21 05:50:59;;;;;;;43.97;25.75;;;10.60;99.90;;;;;;5112380;28;20173;-67
2021/04/21 05:53:25;;;;;;;48.10;29.58;;;10.80;99.90;;;;;;5113356;28;20036;-69
2021/04/21 05:56:09;;;;;;;44.13;26.92;;;10.80;99.90;;;;;;5113330;28;20421;-68
2021/04/21 05:58:54;;;;;;;42.22;25.60;;;10.90;99.90;;;;;;5095011;28;20046;-69
2021/04/21 06:01:22;;;;;;;41.25;22.75;;;10.90;99.90;;;;;;5113276;28;20031;-69
2021/04/21 06:03:50;;;;;;;44.88;23.58;;;;;;;;;;5095151;28;20032;-70
2021/04/21 06:06:16;;;;;;;41.22;21.50;;;11.10;99.90;;;;;;5094818;28;20029;-67
2021/04/21 06:08:42;;;;;;;36.25;21.35;;;11.20;99.90;;;;;;5113018;28;20042;-67
2021/04/21 06:11:18;;;;;;;31.55;17.98;;;11.30;99.90;;;;;;5093181;28;20651;-66
2021/04/21 06:13:44;;;;;;;28.60;16.60;;;11.30;99.80;;;;;;5111236;28;20028;-67
2021/04/21 06:16:15;;;;;;;26.80;17.52;;;11.20;99.70;;;;;;5112455;28;20028;-69
2021/04/21 06:18:41;;;;;;;30.45;16.80;;;11.30;99.70;;;;;;5113763;28;20169;-69
2021/04/21 06:21:18;;;;;;;32.17;17.55;;;11.30;99.90;;;;;;5113801;28;20114;-72
2021/04/21 06:23:44;;;;;;;27.48;14.95;;;11.40;99.90;;;;;;5094200;28;20545;-73
2021/04/21 06:26:10;;;;;;;23.55;14.82;;;11.40;99.90;;;;;;5112504;28;20089;-71
2021/04/21 06:28:36;;;;;;;26.52;15.18;;;11.40;99.00;;;;;;5116630;28;20026;-73
2021/04/21 06:31:03;;;;;;;23.65;13.18;;;11.50;99.50;;;;;;5117192;28;20104;-70
2021/04/21 06:33:41;;;;;;;27.05;13.07;;;11.50;98.60;;;;;;5098447;28;20027;-73
2021/04/21 06:36:09;;;;;;;24.45;14.60;;;11.70;98.90;;;;;;5098535;28;20027;-71
2021/04/21 06:38:38;;;;;;;26.10;14.32;;;11.80;97.80;;;;;;5117098;28;20028;-71
2021/04/21 06:41:04;;;;;;;26.88;14.18;;;11.80;97.60;;;;;;5099237;28;20031;-72
2021/04/21 06:43:36;;;;;;;29.90;14.82;;;11.80;97.50;;;;;;5116721;28;20020;-68
2021/04/21 06:46:07;;;;;;;30.60;15.95;;;11.80;97.50;;;;;;5116546;28;20034;-73
2021/04/21 06:48:36;;;;;;;30.50;15.03;;;11.70;98.30;;;;;;5116445;28;20030;-71
2021/04/21 06:51:10;;;;;;;29.60;15.43;;;11.70;98.30;;;;;;5116484;28;20024;-70
2021/04/21 06:53:37;;;;;;;29.80;15.35;;;11.80;98.70;;;;;;5097962;28;20031;-70
2021/04/21 06:56:05;;;;;;;28.23;15.02;;;11.70;98.60;;;;;;5098038;28;20414;-71
2021/04/21 06:58:33;;;;;;;42.15;21.20;;;11.80;98.50;;;;;;5116157;28;20114;-70
2021/04/21 07:01:16;;;;;;;26.70;14.75;;;11.80;99.30;;;;;;5116283;28;20042;-69
2021/04/21 07:03:43;;;;;;;23.67;13.77;;;11.90;98.40;;;;;;5115266;28;20043;-71
2021/04/21 07:06:09;;;;;;;26.30;13.77;;;12.00;98.50;;;;;;5096936;28;20032;-68
2021/04/21 07:08:38;;;;;;;19.80;12.82;;;11.90;98.40;;;;;;5115412;28;20024;-71
2021/04/21 07:11:07;;;;;;;19.02;12.35;;;12.00;98.10;;;;;;5115570;28;20077;-70
2021/04/21 07:13:50;;;;;;;23.20;13.63;;;12.10;98.60;;;;;;5115559;28;20032;-68
2021/04/21 07:16:21;;;;;;;18.05;11.77;;;12.20;98.40;;;;;;5097515;28;20041;-69
2021/04/21 07:18:52;;;;;;;16.38;11.30;;;12.20;97.30;;;;;;5097493;28;20036;-72
2021/04/21 07:21:19;;;;;;;18.10;11.90;;;12.20;96.90;;;;;;5097531;28;20038;-71
2021/04/21 07:23:58;;;;;;;19.10;11.88;;;12.20;99.00;;;;;;5115773;28;20027;-71
2021/04/21 07:26:45;;;;;;;23.38;13.68;;;12.30;97.70;;;;;;5122525;27;20404;-69
2021/04/21 07:29:25;;;;;;;24.55;15.80;;;12.40;98.70;;;;;;5088393;28;20467;-68
2021/04/21 07:31:52;;;;;;;20.35;13.90;;;12.40;98.90;;;;;;5115223;28;20479;-69
2021/04/21 07:34:32;;;;;;;18.30;13.45;;;12.50;98.50;;;;;;5115917;28;20030;-69
2021/04/21 07:36:59;;;;;;;17.48;11.93;;;12.50;98.40;;;;;;5115656;28;20468;-69
2021/04/21 07:39:40;;;;;;;14.95;10.60;;;12.50;97.60;;;;;;5095433;28;20028;-72
2021/04/21 07:42:16;;;;;;;19.70;11.70;;;12.50;96.40;;;;;;5097246;28;20116;-70
2021/04/21 07:44:53;;;;;;;23.85;12.68;;;12.70;96.20;;;;;;5115539;28;20034;-71
2021/04/21 07:47:23;;;;;;;15.20;11.10;;;12.90;97.30;;;;;;5115421;28;20027;-71
2021/04/21 07:49:57;;;;;;;19.60;11.38;;;13.00;96.10;;;;;;5112965;28;20490;-70
2021/04/21 07:52:33;;;;;;;18.55;11.68;;;12.90;96.50;;;;;;5096613;28;20023;-70
2021/04/21 07:55:06;;;;;;;20.00;11.85;;;13.00;95.30;;;;;;5114696;28;20031;-71
2021/04/21 07:57:33;;;;;;;18.52;11.57;;;13.10;96.10;;;;;;5115257;28;20098;-69
2021/04/21 07:59:59;;;;;;;16.45;11.43;;;13.10;95.00;;;;;;5096812;28;20372;-74
2021/04/21 08:02:30;;;;;;;18.38;12.05;;;13.30;96.10;;;;;;5115089;28;20034;-71
2021/04/21 08:05:07;;;;;;;21.35;12.38;;;13.40;95.70;;;;;;5114991;28;20112;-70
2021/04/21 08:07:42;;;;;;;14.40;8.88;;;13.70;94.80;;;;;;5096870;28;20023;-71
2021/04/21 08:10:09;;;;;;;13.55;8.88;;;13.70;95.00;;;;;;5115014;28;20023;-73
2021/04/21 08:12:37;;;;;;;14.05;9.45;;;13.80;93.50;;;;;;5114592;28;20096;-69
2021/04/21 08:15:10;;;;;;;16.05;8.98;;;13.90;93.20;;;;;;5114491;28;20038;-71
2021/04/21 08:17:59;;;;;;;15.45;10.27;;;13.90;91.70;;;;;;5095706;28;20050;-72
2021/04/21 08:20:27;;;;;;;13.90;9.07;;;14.10;92.30;;;;;;5095537;28;20046;-70
2021/04/21 08:22:58;;;;;;;13.88;7.65;;;14.30;94.20;;;;;;5113454;28;20028;-66
2021/04/21 08:25:24;;;;;;;13.18;8.27;;;14.10;91.30;;;;;;5114304;28;20088;-69
2021/04/21 08:27:50;;;;;;;9.05;6.78;;;14.20;92.10;;;;;;5114492;28;20093;-72
2021/04/21 08:30:17;;;;;;;11.43;8.32;;;14.30;90.40;;;;;;5095694;28;20031;-69
2021/04/21 08:32:43;;;;;;;8.27;6.57;;;14.30;91.80;;;;;;5095967;28;20055;-69
2021/04/21 08:35:10;;;;;;;7.07;5.40;;;14.40;90.30;;;;;;5114286;28;20062;-69
2021/04/21 08:37:36;;;;;;;5.50;4.75;;;14.50;90.40;;;;;;5114204;28;20112;-71
2021/04/21 08:40:04;;;;;;;8.07;5.30;;;14.70;90.10;;;;;;5095840;28;20422;-68
2021/04/21 08:42:31;;;;;;;6.30;4.93;;;14.80;88.00;;;;;;5114105;28;20035;-69
2021/04/21 08:44:57;;;;;;;11.23;5.38;;;15.00;88.20;;;;;;5114187;28;20033;-69
2021/04/21 08:47:25;;;;;;;7.78;4.65;;;15.20;85.90;;;;;;5113284;28;20066;-74
2021/04/21 08:49:55;;;;;;;4.72;4.20;;;15.40;84.90;;;;;;5113196;28;20019;-70
2021/04/21 08:52:24;;;;;;;11.32;4.38;;;15.50;83.80;;;;;;5113700;28;20402;-70
2021/04/21 08:54:54;;;;;;;7.47;4.88;;;15.80;83.90;;;;;;5113585;28;20023;-71
2021/04/21 08:57:21;;;;;;;9.45;5.45;;;16.10;79.60;;;;;;5113926;28;20016;-70
2021/04/21 08:59:47;;;;;;;7.75;5.07;;;16.30;80.60;;;;;;5095675;28;20349;-71
2021/04/21 09:02:15;;;;;;;8.43;5.45;;;16.60;79.90;;;;;;5095616;28;20027;-71
2021/04/21 09:04:44;;;;;;;16.15;5.80;;;16.50;77.90;;;;;;5094978;28;20024;-72
2021/04/21 09:07:13;;;;;;;9.93;6.13;;;16.50;75.90;;;;;;5113370;28;20023;-71
2021/04/21 09:09:39;;;;;;;16.65;10.82;;;16.30;75.90;;;;;;5113059;28;20060;-69
2021/04/21 09:12:07;;;;;;;11.82;6.72;;;16.20;77.90;;;;;;5095054;28;20122;-72
2021/04/21 09:14:33;;;;;;;11.20;7.85;;;16.50;78.70;;;;;;5113405;28;20456;-70
2021/04/21 09:16:59;;;;;;;7.88;6.28;;;16.80;79.60;;;;;;5094971;28;20039;-71
2021/04/21 09:19:25;;;;;;;23.75;13.07;;;17.10;77.90;;;;;;5113633;28;20049;-70
2021/04/21 09:22:09;;;;;;;21.00;12.55;;;17.30;82.30;;;;;;5113535;28;20108;-68
2021/04/21 09:24:37;;;;;;;12.85;8.15;;;17.50;81.20;;;;;;5094008;27;20027;-70
2021/04/21 09:27:26;;;;;;;9.75;7.82;;;17.20;78.00;;;;;;5132871;27;20487;-70
2021/04/21 09:30:14;;;;;;;9.73;7.82;;;17.10;74.10;;;;;;5133686;27;20100;-71
2021/04/21 09:32:59;;;;;;;11.38;8.48;;;17.50;79.80;;;;;;5134237;27;20047;-71
2021/04/21 09:35:27;;;;;;;14.05;7.72;;;17.50;74.70;;;;;;5134240;27;20127;-69
2021/04/21 09:38:13;;;;;;;19.02;8.48;;;17.40;73.20;;;;;;5133860;27;20352;-71
2021/04/21 09:40:54;;;;;;;10.18;8.13;;;;;;;;;;5134053;27;20059;-71
2021/04/21 09:43:25;;;;;;;16.15;8.52;;;;;;;;;;5134068;28;20016;-70
2021/04/21 09:45:55;;;;;;;11.63;8.20;;;;;;;;;;5133984;28;20027;-69
2021/04/21 09:48:32;;;;;;;11.18;7.70;;;;;;;;;;5133901;28;20104;-72
2021/04/21 09:51:12;;;;;;;8.18;6.90;;;;;;;;;;5133943;28;20022;-70
2021/04/21 09:53:41;;;;;;;9.48;7.05;;;;;;;;;;5115450;28;20023;-71
2021/04/21 09:56:10;;;;;;;8.88;7.05;;;;;;;;;;5133910;28;20033;-69
2021/04/21 09:58:39;;;;;;;11.13;7.50;;;19.30;65.80;;;;;;5133257;28;20035;-70
2021/04/21 10:01:23;;;;;;;10.68;7.38;;;19.30;63.40;;;;;;5132719;27;20027;-69
2021/04/21 10:04:12;;;;;;;8.63;6.93;;;18.10;64.50;;;;;;5136833;27;20035;-70
2021/04/21 10:06:59;;;;;;;8.90;7.18;;;18.20;68.20;;;;;;5118509;27;20066;-68
2021/04/21 10:09:30;;;;;;;9.52;7.60;;;18.10;68.50;;;;;;5137005;27;20034;-71
2021/04/21 10:12:17;;;;;;;10.60;7.05;;;17.80;65.80;;;;;;5137172;27;20023;-70
2021/04/21 10:14:47;;;;;;;10.07;7.15;;;17.80;66.50;;;;;;5119192;27;20072;-70
2021/04/21 10:17:14;;;;;;;7.82;7.03;;;17.80;67.90;;;;;;5137538;27;20050;-70
2021/04/21 10:19:42;;;;;;;32.03;7.40;;;18.20;67.80;;;;;;5137539;27;20035;-72
2021/04/21 10:22:12;;;;;;;8.75;6.95;;;18.10;67.00;;;;;;5137517;27;20023;-70
2021/04/21 10:24:38;;;;;;;9.63;6.90;;;18.00;68.20;;;;;;5137387;27;20437;-69
2021/04/21 10:27:05;;;;;;;11.27;8.60;;;17.80;66.40;;;;;;5137718;27;20023;-70
2021/04/21 10:29:31;;;;;;;13.63;8.20;;;17.70;64.70;;;;;;5118839;27;20050;-71
2021/04/21 10:31:58;;;;;;;13.98;8.45;;;17.80;63.30;;;;;;5137378;27;20102;-70
2021/04/21 10:34:26;;;;;;;11.18;8.02;;;17.70;64.80;;;;;;5137474;27;20062;-71
2021/04/21 10:36:53;;;;;;;12.23;8.63;;;18.00;64.60;;;;;;5137046;27;20371;-70
2021/04/21 10:39:30;;;;;;;10.52;7.60;;;20.30;63.90;;;;;;5118700;27;20027;-69
2021/04/21 10:42:10;;;;;;;10.60;7.65;;;21.30;55.10;;;;;;5137159;27;20110;-68
2021/04/21 10:44:37;;;;;;;13.30;8.02;;;20.00;58.50;;;;;;5137098;27;20019;-71
2021/04/21 10:47:09;;;;;;;10.23;8.25;;;19.90;57.60;;;;;;5137014;27;20023;-69
2021/04/21 10:49:43;;;;;;;10.60;7.75;;;20.20;57.60;;;;;;5135339;27;20084;-69
2021/04/21 10:52:10;;;;;;;9.48;6.30;;;21.60;54.50;;;;;;5116154;27;20023;-70
2021/04/21 10:54:35;;;;;;;12.77;7.63;;;23.10;53.10;;;;;;5118196;27;20055;-69
2021/04/21 10:57:26;;;;;;;12.35;6.97;;;22.60;49.30;;;;;;5118417;27;20054;-71
2021/04/21 11:00:07;;;;;;;15.80;8.70;;;21.60;52.70;;;;;;5136635;27;20494;-72
2021/04/21 11:02:43;;;;;;;14.70;8.85;;;21.20;53.40;;;;;;5135320;27;20027;-71
2021/04/21 11:05:29;;;;;;;89.43;47.30;;;20.90;54.20;;;;;;5135290;27;20332;-71
2021/04/21 11:08:02;;;;;;;6.93;6.25;;;22.20;53.10;;;;;;5136548;27;20035;-71
2021/04/21 11:11:03;;;;;;;11.73;6.60;;;23.30;48.80;;;;;;5136523;27;20357;-71
2021/04/21 11:13:35;;;;;;;15.82;12.65;;;24.00;44.70;;;;;;5116485;28;20352;-72
2021/04/21 11:16:08;;;;;;;7.63;5.57;;;;;;;;;;5118107;27;20027;-70
2021/04/21 11:18:34;;;;;;;7.63;6.85;;;;;;;;;;5136508;27;20031;-71
2021/04/21 11:21:05;;;;;;;7.50;6.10;;;;;;;;;;5136669;27;20026;-71
2021/04/21 11:23:59;;;;;;;7.13;6.35;;;;;;;;;;5118073;27;20024;-71
2021/04/21 11:26:31;;;;;;;12.63;8.82;;;26.20;40.80;;;;;;5117678;27;20381;-71
2021/04/21 11:29:18;;;;;;;6.43;5.70;;;26.70;41.40;;;;;;5117965;27;20118;-70
2021/04/21 11:31:44;;;;;;;6.72;6.00;;;26.30;38.90;;;;;;5118004;27;20059;-71
2021/04/21 11:34:13;;;;;;;8.10;6.68;;;27.10;39.20;;;;;;5136358;27;20026;-71
2021/04/21 11:36:49;;;;;;;7.05;6.32;;;;;;;;;;5136294;27;20494;-72
2021/04/21 11:39:15;;;;;;;7.75;6.00;;;;;;;;;;5117429;27;20027;-71
2021/04/21 11:41:49;;;;;;;8.75;6.50;;;;;;;;;;5117731;27;20026;-71
2021/04/21 11:44:34;;;;;;;7.20;5.97;;;;;;;;;;5116930;27;20471;-70
2021/04/21 11:47:02;;;;;;;14.20;6.85;;;;;;;;;;5117587;27;20575;-69
2021/04/21 11:49:46;;;;;;;7.22;5.72;;;;;;;;;;5117610;27;20027;-71
2021/04/21 11:52:32;;;;;;;6.00;5.50;;;;;;;;;;5136116;27;20344;-69
2021/04/21 11:54:59;;;;;;;8.45;6.13;;;;;;;;;;5135801;27;20106;-70
2021/04/21 11:57:25;;;;;;;7.57;6.18;;;;;;;;;;5117423;27;20072;-69
2021/04/21 11:59:51;;;;;;;7.13;6.13;;;;;;;;;;5117261;27;20031;-71
2021/04/21 12:02:17;;;;;;;9.13;6.30;;;;;;;;;;5135701;27;20106;-72
2021/04/21 12:04:43;;;;;;;11.98;6.70;;;;;;;;;;5135951;27;20151;-69
2021/04/21 12:07:10;;;;;;;9.52;6.22;;;;;;;;;;5135648;27;20035;-70
2021/04/21 12:09:36;;;;;;;5.85;5.10;;;;;;;;;;5135864;27;20114;-70
2021/04/21 12:12:03;;;;;;;11.80;5.85;;;;;;;;;;5116888;27;20408;-72
2021/04/21 12:14:29;;;;;;;6.88;5.95;;;;;;;;;;5135534;27;20027;-70
2021/04/21 12:16:56;;;;;;;7.07;6.07;;;;;;;;;;5135128;27;20102;-70
2021/04/21 12:19:27;;;;;;;6.43;5.78;;;;;;;;;;5135369;27;20034;-70
2021/04/21 12:21:54;;;;;;;6.38;5.30;;;;;;;;;;5135466;27;20030;-70
2021/04/21 12:24:21;;;;;;;8.80;5.55;;;;;;;;;;5116537;27;20100;-71
2021/04/21 12:26:47;;;;;;;8.25;5.97;;;;;;;;;;5135339;27;20047;-70
2021/04/21 12:29:18;;;;;;;8.32;5.93;;;;;;;;;;5135298;27;20027;-69
2021/04/21 12:31:46;;;;;;;7.63;5.03;;;;;;;;;;5135268;27;20344;-71
2021/04/21 12:34:16;;;;;;;10.38;5.78;;;;;;;;;;5135255;27;20033;-70
2021/04/21 12:36:42;;;;;;;14.00;6.95;;;24.80;38.50;;;;;;5135374;27;20029;-69
2021/04/21 12:39:09;;;;;;;27.70;23.73;;;24.50;38.40;;;;;;5135074;27;20036;-70
2021/04/21 12:41:37;;;;;;;11.13;9.00;;;23.70;40.70;;;;;;5134976;27;20031;-70
2021/04/21 12:44:13;;;;;;;8.75;6.47;;;23.80;40.80;;;;;;5134727;27;20110;-70
2021/04/21 12:46:40;;;;;;;7.00;6.30;;;23.40;42.30;;;;;;5116503;27;20551;-70
2021/04/21 12:49:06;;;;;;;9.57;6.97;;;22.70;42.30;;;;;;5134838;27;20027;-70
2021/04/21 12:51:33;;;;;;;11.55;6.97;;;22.30;45.20;;;;;;5116362;27;20019;-70
2021/04/21 12:54:01;;;;;;;6.43;5.70;;;21.60;45.00;;;;;;5134855;27;20733;-70
2021/04/21 12:56:41;;;;;;;7.45;5.80;;;20.80;46.50;;;;;;5134804;27;20065;-71
2021/04/21 12:59:15;;;;;;;8.65;7.10;;;20.70;47.40;;;;;;5134700;27;20035;-72
2021/04/21 13:01:41;;;;;;;10.73;8.00;;;20.60;48.30;;;;;;5134601;27;20363;-73
2021/04/21 13:04:11;;;;;;;7.50;6.60;;;20.30;50.80;;;;;;5116229;27;20034;-71
2021/04/21 13:06:51;;;;;;;7.90;6.40;;;20.00;51.60;;;;;;5134251;27;20387;-69
2021/04/21 13:09:26;;;;;;;8.45;5.97;;;19.70;50.80;;;;;;5134564;27;20467;-71
2021/04/21 13:12:00;;;;;;;9.05;6.32;;;19.50;50.80;;;;;;5134510;27;20026;-70
2021/04/21 13:14:47;;;;;;;7.28;5.63;;;19.30;50.30;;;;;;5134135;27;20034;-73
2021/04/21 13:17:13;;;;;;;11.10;6.95;;;19.30;50.10;;;;;;5134444;27;20019;-73
2021/04/21 13:19:50;;;;;;;6.28;5.22;;;19.30;51.10;;;;;;5115867;27;20035;-70